Time;durP1;ratioP1;P1;durP2;ratioP2;P2;SDS_P1;SDS_P2;PMS_P1;PMS_P2;Temp;Humidity;BMP_temperature;BMP_pressure;BME280_temperature;BME280_humidity;BME280_pressure;Samples;Min_cycle;Max_cycle;Signal;HPM_P1;HPM_P2
2021/10/24 00:01:52;;;;;;;5.07;1.70;;;;;;;2.16;72.88;96836.26;1767792;80;21062;-68
2021/10/24 00:04:19;;;;;;;2.43;1.43;;;;;;;2.22;73.19;96834.27;1775663;81;21018;-70
2021/10/24 00:06:45;;;;;;;3.87;1.77;;;;;;;2.22;72.67;96830.36;1766689;80;21520;-69
2021/10/24 00:09:12;;;;;;;4.17;1.70;;;;;;;2.21;72.30;96829.91;1773127;80;21061;-69
2021/10/24 00:11:39;;;;;;;4.80;1.90;;;;;;;2.23;72.28;96833.45;1775577;81;20995;-69
2021/10/24 00:14:07;;;;;;;4.70;1.90;;;;;;;2.23;71.97;96837.36;1765482;80;21587;-69
2021/10/24 00:16:34;;;;;;;3.07;1.20;;;;;;;2.26;71.46;96835.73;1774607;80;21050;-69
2021/10/24 00:19:01;;;;;;;6.27;1.80;;;;;;;2.25;71.28;96836.58;1771902;80;21014;-69
2021/10/24 00:21:28;;;;;;;4.17;2.43;;;;;;;2.15;73.03;96828.88;1778698;81;21517;-69
2021/10/24 00:23:54;;;;;;;3.40;1.83;;;;;;;2.07;73.22;96834.24;1778408;81;21560;-69
2021/10/24 00:26:21;;;;;;;4.63;2.23;;;;;;;2.00;72.93;96833.98;1768257;80;21103;-70
2021/10/24 00:28:48;;;;;;;7.87;2.80;;;;;;;1.94;73.96;96833.33;1774424;80;21521;-68
2021/10/24 00:31:15;;;;;;;2.67;1.60;;;;;;;1.93;74.03;96836.36;1772163;80;21067;-67
2021/10/24 00:33:41;;;;;;;4.57;1.77;;;;;;;1.90;73.64;96832.77;1777345;80;21138;-69
2021/10/24 00:36:08;;;;;;;4.90;2.30;;;;;;;1.92;73.36;96833.72;1772681;80;22105;-69
2021/10/24 00:38:34;;;;;;;3.80;2.30;;;;;;;1.97;74.02;96841.70;1764255;80;21013;-69
2021/10/24 00:41:01;;;;;;;5.17;2.60;;;;;;;1.95;74.56;96841.62;1767792;80;21496;-69
2021/10/24 00:43:28;;;;;;;4.77;2.20;;;;;;;1.91;74.10;96847.55;1753736;81;21015;-69
2021/10/24 00:45:55;;;;;;;17.47;6.43;;;;;;;1.77;74.63;96848.38;1769250;80;21497;-69
2021/10/24 00:48:22;;;;;;;16.27;6.13;;;;;;;1.71;75.05;96850.74;1771504;80;21015;-69
2021/10/24 00:50:49;;;;;;;13.43;5.70;;;;;;;1.66;75.62;96846.70;1777712;81;21568;-70
2021/10/24 00:53:16;;;;;;;4.27;1.63;;;;;;;1.76;75.66;96854.81;1764960;80;20986;-69
2021/10/24 00:55:44;;;;;;;3.13;1.90;;;;;;;1.78;75.54;96855.77;1769341;80;21064;-69
2021/10/24 00:58:15;;;;;;;3.30;1.80;;;;;;;1.82;75.27;96861.13;1776816;81;21039;-69
2021/10/24 01:00:42;;;;;;;4.40;1.73;;;;;;;1.83;75.94;96865.92;1763709;80;20994;-69
2021/10/24 01:03:08;;;;;;;4.90;1.67;;;;;;;1.85;75.95;96866.86;1765652;80;20985;-69
2021/10/24 01:05:36;;;;;;;3.97;1.63;;;;;;;1.83;75.46;96864.62;1768978;80;21548;-69
2021/10/24 01:08:04;;;;;;;2.57;1.60;;;;;;;1.97;75.45;96872.93;1778717;80;21011;-68
2021/10/24 01:10:31;;;;;;;6.57;1.73;;;;;;;2.04;74.68;96867.98;1776469;80;21007;-69
2021/10/24 01:12:58;;;;;;;4.93;1.67;;;;;;;2.13;74.99;96867.41;1775318;81;21023;-69
2021/10/24 01:15:24;;;;;;;4.63;1.97;;;;;;;2.08;74.28;96870.27;1762696;80;21003;-69
2021/10/24 01:17:51;;;;;;;1.90;1.30;;;;;;;1.98;75.26;96872.96;1777098;81;21496;-69
2021/10/24 01:20:23;;;;;;;3.57;1.80;;;;;;;1.89;74.51;96869.64;1772962;81;20984;-69
2021/10/24 01:22:52;;;;;;;4.27;2.53;;;;;;;1.80;75.24;96865.81;1768135;80;21467;-69
2021/10/24 01:25:20;;;;;;;2.80;2.07;;;;;;;1.71;75.12;96865.05;1768083;80;21102;-70
2021/10/24 01:27:49;;;;;;;4.67;3.10;;;;;;;1.63;75.48;96873.00;1764235;80;21013;-70
2021/10/24 01:30:18;;;;;;;4.27;2.80;;;;;;;1.60;75.24;96872.48;1766603;80;21091;-70
2021/10/24 01:32:45;;;;;;;7.40;3.73;;;;;;;1.59;74.96;96887.62;1770959;80;21025;-70
2021/10/24 01:35:12;;;;;;;9.53;3.40;;;;;;;1.56;74.61;96879.69;1777163;80;20979;-69
2021/10/24 01:37:42;;;;;;;4.90;2.90;;;;;;;1.38;75.69;96874.69;1778506;81;21035;-69
2021/10/24 01:40:13;;;;;;;8.27;3.40;;;;;;;1.30;75.72;96886.11;1770248;80;21475;-68
2021/10/24 01:42:50;;;;;;;7.97;2.90;;;;;;;1.20;75.37;96892.20;1769448;80;21102;-68
2021/10/24 01:45:18;;;;;;;4.37;1.73;;;;;;;1.13;74.96;96892.38;1757452;80;21009;-68
2021/10/24 01:47:46;;;;;;;2.13;1.27;;;;;;;1.08;75.22;96893.91;1769478;80;21022;-69
2021/10/24 01:50:13;;;;;;;3.13;1.30;;;;;;;0.98;75.16;96888.80;1775557;80;21115;-69
2021/10/24 01:52:43;;;;;;;2.90;1.27;;;;;;;0.93;75.17;96889.42;1768385;81;21022;-69
2021/10/24 01:55:12;;;;;;;5.70;1.87;;;;;;;0.92;75.70;96896.75;1778000;80;21106;-69
2021/10/24 01:57:46;;;;;;;5.70;3.00;;;;;;;0.85;77.26;96898.21;1772298;81;21054;-70
2021/10/24 02:00:16;;;;;;;3.57;2.50;;;;;;;0.84;77.10;96898.63;1770460;80;21018;-69
2021/10/24 02:02:47;;;;;;;5.13;2.20;;;;;;;0.82;77.12;96898.97;1765137;80;21014;-70
2021/10/24 02:05:29;;;;;;;4.03;1.97;;;;;;;0.86;76.87;96902.18;1764139;80;21041;-69
2021/10/24 02:07:56;;;;;;;5.90;2.90;;;;;;;0.86;76.76;96902.18;1765994;80;21034;-70
2021/10/24 02:10:23;;;;;;;5.93;2.17;;;;;;;0.90;76.36;96904.47;1769426;81;21044;-70
2021/10/24 02:12:50;;;;;;;6.53;3.90;;;;;;;0.90;76.35;96912.27;1772598;80;21058;-70
2021/10/24 02:15:18;;;;;;;17.27;7.07;;;;;;;0.89;76.57;96914.41;1768670;80;21015;-70
2021/10/24 02:17:46;;;;;;;11.83;5.23;;;;;;;0.80;76.51;96916.63;1767351;80;21038;-69
2021/10/24 02:20:14;;;;;;;6.97;2.90;;;;;;;0.66;76.85;96916.50;1772728;80;20983;-68
2021/10/24 02:22:41;;;;;;;2.13;1.60;;;;;;;0.73;77.08;96919.80;1771786;80;21007;-69
2021/10/24 02:25:10;;;;;;;4.23;1.80;;;;;;;0.68;76.91;96918.34;1768899;80;20986;-68
2021/10/24 02:27:38;;;;;;;4.80;2.00;;;;;;;0.69;77.07;96916.63;1775905;81;21058;-69
2021/10/24 02:30:07;;;;;;;4.90;1.77;;;;;;;0.62;76.15;96925.86;1756566;80;21014;-69
2021/10/24 02:32:34;;;;;;;6.47;2.70;;;;;;;0.51;76.31;96925.84;1753724;80;21057;-69
2021/10/24 02:35:04;;;;;;;6.67;1.70;;;;;;;0.34;77.49;96927.31;1771413;80;21014;-69
2021/10/24 02:37:33;;;;;;;3.93;1.77;;;;;;;0.40;76.96;96923.69;1766897;80;21037;-69
2021/10/24 02:40:03;;;;;;;4.17;1.80;;;;;;;0.38;77.42;96926.62;1763419;80;21001;-70
2021/10/24 02:42:31;;;;;;;3.67;1.97;;;;;;;0.47;77.72;96932.60;1771063;80;21019;-65
2021/10/24 02:44:58;;;;;;;6.80;2.73;;;;;;;0.46;77.74;96932.56;1772735;80;21095;-70
2021/10/24 02:47:25;;;;;;;6.50;3.37;;;;;;;0.47;77.25;96935.20;1771445;80;21061;-69
2021/10/24 02:49:52;;;;;;;11.50;5.33;;;;;;;0.50;76.95;96937.92;1772474;80;20997;-70
2021/10/24 02:52:19;;;;;;;9.60;4.00;;;;;;;0.46;77.14;96933.86;1769527;81;21046;-69
2021/10/24 02:54:46;;;;;;;5.77;2.90;;;;;;;0.34;76.97;96938.98;1762683;80;21047;-69
2021/10/24 02:57:13;;;;;;;7.13;2.00;;;;;;;0.26;76.69;96945.99;1771807;80;21666;-69
2021/10/24 02:59:40;;;;;;;3.80;1.80;;;;;;;0.31;76.70;96945.77;1771937;80;21002;-69
2021/10/24 03:02:08;;;;;;;6.73;1.90;;;;;;;0.36;76.75;96943.84;1765279;80;21546;-68
2021/10/24 03:04:35;;;;;;;2.60;1.50;;;;;;;0.39;77.11;96938.77;1754216;80;21527;-69
2021/10/24 03:07:02;;;;;;;5.97;1.93;;;;;;;0.49;76.89;96941.34;1770532;80;20982;-68
2021/10/24 03:09:28;;;;;;;3.93;1.70;;;;;;;0.50;76.56;96951.31;1772321;80;20987;-69
2021/10/24 03:11:56;;;;;;;2.03;1.00;;;;;;;0.50;75.99;96956.09;1774339;81;21029;-69
2021/10/24 03:14:23;;;;;;;2.63;1.53;;;;;;;0.45;75.92;96957.61;1769077;80;21049;-69
2021/10/24 03:16:50;;;;;;;2.00;1.23;;;;;;;0.31;76.16;96958.34;1766792;80;21068;-69
2021/10/24 03:19:19;;;;;;;2.90;1.60;;;;;;;0.22;76.03;96957.94;1774677;80;21031;-68
2021/10/24 03:21:48;;;;;;;3.67;1.50;;;;;;;0.26;76.78;96969.36;1775622;81;21087;-69
2021/10/24 03:24:18;;;;;;;5.77;1.87;;;;;;;0.19;76.63;96966.47;1773224;81;21066;-70
2021/10/24 03:26:44;;;;;;;2.97;1.57;;;;;;;0.27;76.61;96960.73;1770411;81;21098;-69
2021/10/24 03:29:11;;;;;;;4.57;1.70;;;;;;;0.26;76.56;96960.27;1771226;80;21003;-69
2021/10/24 03:31:38;;;;;;;5.17;2.00;;;;;;;0.21;76.86;96969.15;1769573;80;21032;-69
2021/10/24 03:34:05;;;;;;;4.30;2.00;;;;;;;0.19;76.91;96973.38;1766405;81;21023;-69
2021/10/24 03:36:32;;;;;;;4.17;1.77;;;;;;;0.22;77.23;96976.10;1771846;80;21022;-69
2021/10/24 03:38:58;;;;;;;5.80;2.03;;;;;;;0.24;76.88;96980.08;1772240;80;21468;-68
2021/10/24 03:41:26;;;;;;;6.40;2.00;;;;;;;0.21;77.09;96983.01;1767972;79;21052;-68
2021/10/24 03:43:53;;;;;;;4.43;1.37;;;;;;;0.19;77.37;96978.16;1775071;80;21164;-69
2021/10/24 03:46:20;;;;;;;4.87;2.07;;;;;;;0.27;76.90;96981.08;1767853;80;21269;-68
2021/10/24 03:48:46;;;;;;;3.33;1.60;;;;;;;0.34;76.76;96974.45;1775012;80;21068;-68
2021/10/24 03:51:13;;;;;;;3.10;1.17;;;;;;;0.34;76.35;96982.25;1772946;81;21047;-68
2021/10/24 03:53:40;;;;;;;9.47;1.80;;;;;;;0.25;76.10;96985.73;1773030;81;21062;-69
2021/10/24 03:56:06;;;;;;;4.17;2.10;;;;;;;0.14;75.78;96986.16;1767927;80;21041;-70
2021/10/24 03:58:34;;;;;;;2.87;1.63;;;;;;;0.11;76.10;96983.84;1775882;80;20991;-69
2021/10/24 04:01:01;;;;;;;3.20;1.90;;;;;;;0.07;76.59;96987.11;1770689;81;21013;-69
2021/10/24 04:03:28;;;;;;;7.27;2.53;;;;;;;0.05;77.61;96987.06;1766659;80;21019;-69
2021/10/24 04:05:55;;;;;;;3.67;1.83;;;;;;;0.09;77.44;96991.55;1769697;80;21061;-69
2021/10/24 04:08:23;;;;;;;3.50;2.00;;;;;;;0.09;77.24;96992.84;1770131;80;21018;-69
2021/10/24 04:10:51;;;;;;;4.50;1.97;;;;;;;0.14;77.25;96995.23;1767279;80;20978;-69
2021/10/24 04:13:18;;;;;;;2.60;1.87;;;;;;;0.15;77.27;96997.03;1770110;80;21489;-70
2021/10/24 04:15:45;;;;;;;5.30;2.30;;;;;;;0.03;77.13;97001.67;1762803;80;21088;-69
2021/10/24 04:18:22;;;;;;;3.63;1.60;;;;;;;-0.03;77.27;96998.37;1660393;85;21031;-69
2021/10/24 04:20:49;;;;;;;2.70;2.03;;;;;;;-0.11;77.10;97001.04;1764442;80;21013;-69
2021/10/24 04:23:16;;;;;;;4.73;1.90;;;;;;;-0.19;77.37;97004.13;1773783;81;21030;-68
2021/10/24 04:25:43;;;;;;;4.00;1.97;;;;;;;-0.16;77.85;97009.02;1778374;81;21113;-68
2021/10/24 04:28:10;;;;;;;2.83;1.70;;;;;;;-0.19;78.00;97008.02;1765615;80;21030;-69
2021/10/24 04:30:38;;;;;;;4.13;2.30;;;;;;;-0.30;78.09;97011.00;1769022;80;21095;-68
2021/10/24 04:33:05;;;;;;;7.17;3.13;;;;;;;-0.31;78.11;97007.03;1764201;80;21019;-69
2021/10/24 04:35:33;;;;;;;6.30;2.37;;;;;;;-0.29;78.15;97014.06;1777414;80;21544;-69
2021/10/24 04:38:00;;;;;;;4.63;1.80;;;;;;;-0.27;77.88;97015.03;1775660;81;21549;-69
2021/10/24 04:40:27;;;;;;;4.07;2.20;;;;;;;-0.30;77.94;97015.31;1766312;80;21061;-68
2021/10/24 04:42:55;;;;;;;6.43;2.57;;;;;;;-0.40;78.03;97020.86;1764158;80;20998;-69
2021/10/24 04:45:22;;;;;;;6.77;2.80;;;;;;;-0.36;77.90;97022.79;1764218;79;21113;-69
2021/10/24 04:47:49;;;;;;;6.33;2.63;;;;;;;-0.37;77.81;97019.31;1770429;80;21031;-69
2021/10/24 04:50:15;;;;;;;4.63;2.80;;;;;;;-0.42;77.83;97017.33;1756701;81;21187;-70
2021/10/24 04:52:42;;;;;;;2.60;2.10;;;;;;;-0.39;78.06;97016.17;1771049;80;21049;-69
2021/10/24 04:55:09;;;;;;;4.83;2.20;;;;;;;-0.36;78.00;97024.97;1769342;80;21604;-69
2021/10/24 04:57:37;;;;;;;5.30;3.00;;;;;;;-0.42;78.04;97027.29;1771661;80;21036;-70
2021/10/24 05:00:09;;;;;;;4.30;2.10;;;;;;;-0.50;77.52;97031.23;1773224;80;20988;-69
2021/10/24 05:02:37;;;;;;;8.93;2.62;;;;;;;-0.54;78.00;97034.07;1778358;81;21449;-69
2021/10/24 05:05:06;;;;;;;3.50;2.60;;;;;;;-0.46;78.48;97037.91;1778468;81;21022;-69
2021/10/24 05:07:33;;;;;;;5.03;3.17;;;;;;;-0.52;78.02;97035.04;1777370;81;21023;-70
2021/10/24 05:09:59;;;;;;;3.10;2.50;;;;;;;-0.54;78.23;97040.97;1772221;80;21041;-69
2021/10/24 05:12:26;;;;;;;6.63;2.97;;;;;;;-0.44;78.28;97045.36;1764148;80;20990;-70
2021/10/24 05:14:54;;;;;;;6.00;3.00;;;;;;;-0.45;78.28;97052.67;1771900;80;21004;-71
2021/10/24 05:17:21;;;;;;;5.57;3.37;;;;;;;-0.53;78.45;97056.61;1774380;81;21565;-70
2021/10/24 05:19:47;;;;;;;4.13;3.03;;;;;;;-0.56;78.00;97057.73;1775584;81;21037;-70
2021/10/24 05:22:14;;;;;;;5.53;3.20;;;;;;;-0.66;77.47;97073.28;1767701;80;21068;-70
2021/10/24 05:24:42;;;;;;;10.93;4.10;;;;;;;-0.74;77.48;97069.41;1767929;80;21556;-70
2021/10/24 05:27:09;;;;;;;7.83;4.07;;;;;;;-0.77;77.77;97075.74;1764231;80;21105;-70
2021/10/24 05:29:35;;;;;;;15.73;6.93;;;;;;;-0.80;78.36;97075.60;1770970;80;21020;-69
2021/10/24 05:32:03;;;;;;;56.67;17.73;;;;;;;-0.78;78.77;97081.75;1775583;81;20987;-69
2021/10/24 05:34:30;;;;;;;65.40;23.90;;;;;;;-0.75;79.04;97075.42;1777001;81;21110;-69
2021/10/24 05:36:58;;;;;;;71.87;25.97;;;;;;;-0.68;79.28;97081.77;1773335;81;21553;-70
2021/10/24 05:39:25;;;;;;;55.83;19.33;;;;;;;-0.61;79.02;97079.08;1752579;81;21011;-69
2021/10/24 05:41:51;;;;;;;30.63;12.77;;;;;;;-0.55;79.14;97091.05;1770479;81;21034;-69
2021/10/24 05:44:21;;;;;;;60.40;22.60;;;;;;;-0.53;78.41;97095.50;1777167;79;21026;-69
2021/10/24 05:46:50;;;;;;;28.80;11.20;;;;;;;-0.56;78.21;97087.96;1771702;80;21544;-69
2021/10/24 05:49:16;;;;;;;7.80;3.03;;;;;;;-0.47;79.68;97089.71;1768024;80;21009;-69
2021/10/24 05:51:45;;;;;;;72.63;25.73;;;;;;;-0.41;79.27;97086.10;1764012;80;21013;-70
2021/10/24 05:54:12;;;;;;;46.10;18.03;;;;;;;-0.36;79.79;97080.72;1770429;80;20987;-70
2021/10/24 05:56:41;;;;;;;41.40;13.63;;;;;;;-0.26;79.51;97085.94;1775343;80;21536;-70
2021/10/24 05:59:08;;;;;;;48.37;17.27;;;;;;;-0.12;79.79;97093.09;1744996;80;21593;-70
2021/10/24 06:01:36;;;;;;;39.07;18.57;;;;;;;-0.02;80.03;97095.30;1767081;80;21061;-70
2021/10/24 06:04:21;;;;;;;30.47;15.20;;;;;;;0.15;79.74;97106.04;1769196;80;21057;-70
2021/10/24 06:07:06;;;;;;;15.80;8.77;;;;;;;0.34;79.17;97099.95;1770294;80;21686;-70
2021/10/24 06:09:41;;;;;;;29.83;15.27;;;;;;;0.48;78.95;97102.27;1777047;81;21050;-70
2021/10/24 06:12:15;;;;;;;24.90;12.97;;;;;;;0.61;78.31;97111.11;1777227;80;21077;-70
2021/10/24 06:14:42;;;;;;;21.87;11.35;;;;;;;0.68;78.06;97120.04;1767308;80;21021;-69
2021/10/24 06:17:09;;;;;;;13.60;8.13;;;;;;;0.76;77.75;97113.50;1777947;81;21516;-68
2021/10/24 06:19:37;;;;;;;15.07;9.43;;;;;;;0.85;78.29;97117.77;1774430;81;21027;-69
2021/10/24 06:22:05;;;;;;;16.27;8.77;;;;;;;0.84;78.35;97112.99;1752193;80;21004;-68
2021/10/24 06:24:33;;;;;;;21.30;11.50;;;;;;;0.90;78.48;97117.97;1769844;80;21038;-69
2021/10/24 06:26:59;;;;;;;16.40;10.20;;;;;;;0.99;78.64;97117.97;1769868;80;20993;-69
2021/10/24 06:29:26;;;;;;;13.00;7.90;;;;;;;1.13;78.51;97120.25;1768779;80;21053;-69
2021/10/24 06:31:54;;;;;;;11.23;6.90;;;;;;;1.26;78.36;97116.03;1769395;80;21848;-70
2021/10/24 06:34:39;;;;;;;14.30;7.50;;;;;;;1.44;77.81;97117.23;1767406;80;20999;-69
2021/10/24 06:37:20;;;;;;;15.83;9.07;;;;;;;1.62;77.03;97111.89;1772150;80;21031;-70
2021/10/24 06:39:49;;;;;;;11.90;6.67;;;;;;;1.77;76.94;97119.43;1767678;80;20999;-70
2021/10/24 06:42:15;;;;;;;12.20;6.93;;;;;;;1.81;76.10;97118.28;1768744;80;21066;-70
2021/10/24 06:44:48;;;;;;;11.10;5.90;;;;;;;1.92;76.17;97123.52;1775501;81;21015;-70
2021/10/24 06:47:19;;;;;;;7.23;4.87;;;;;;;2.07;75.98;97123.23;1745151;79;21096;-70
2021/10/24 06:50:07;;;;;;;6.43;3.80;;;;;;;2.21;74.55;97126.77;1769687;80;20999;-70
2021/10/24 06:52:39;;;;;;;11.53;6.67;;;;;;;2.31;74.45;97134.11;1752995;81;21520;-70
2021/10/24 06:55:20;;;;;;;18.83;10.67;;;;;;;2.43;74.43;97137.59;1770710;81;21042;-69
2021/10/24 06:58:02;;;;;;;17.87;10.37;;;;;;;2.56;74.19;97148.52;1775491;80;21058;-70
2021/10/24 07:00:47;;;;;;;16.57;8.93;;;;;;;2.67;74.29;97144.13;1779629;81;21066;-69
2021/10/24 07:03:31;;;;;;;9.37;6.00;;;;;;;2.78;74.18;97147.60;1775304;81;21058;-68
2021/10/24 07:06:17;;;;;;;11.23;6.67;;;;;;;2.85;73.83;97150.03;1771915;80;21053;-69
2021/10/24 07:08:45;;;;;;;11.37;5.70;;;;;;;2.93;74.08;97147.70;1768229;80;21026;-70
2021/10/24 07:11:12;;;;;;;11.27;6.63;;;;;;;3.05;74.10;97146.83;1774887;80;21035;-68
2021/10/24 07:13:39;;;;;;;11.50;6.10;;;;;;;3.13;73.95;97149.70;1773338;80;21131;-69
2021/10/24 07:16:06;;;;;;;10.93;6.30;;;;;;;3.25;74.16;97150.11;1777333;81;20967;-69
2021/10/24 07:18:33;;;;;;;12.50;5.83;;;;;;;3.48;74.25;97149.62;1758448;80;21057;-70
2021/10/24 07:20:59;;;;;;;12.80;6.87;;;;;;;3.58;73.48;97150.79;1777059;79;21078;-70
2021/10/24 07:23:26;;;;;;;21.60;11.67;;;;;;;3.67;73.52;97151.98;1772715;81;21027;-70
2021/10/24 07:25:54;;;;;;;22.00;13.57;;;;;;;3.86;73.60;97151.30;1727783;80;20999;-70
2021/10/24 07:28:21;;;;;;;14.77;9.10;;;;;;;4.03;72.69;97158.35;1772841;81;21046;-70
2021/10/24 07:30:48;;;;;;;12.43;8.13;;;;;;;4.24;72.60;97159.04;1768859;80;21055;-70
2021/10/24 07:33:14;;;;;;;12.70;7.20;;;;;;;4.46;72.02;97163.20;1776951;81;21019;-69
2021/10/24 07:35:43;;;;;;;15.10;8.20;;;;;;;4.62;70.58;97159.74;1748538;80;21023;-69
2021/10/24 07:38:17;;;;;;;10.67;5.73;;;;;;;4.82;70.62;97160.33;1778624;81;21497;-69
2021/10/24 07:40:49;;;;;;;11.23;4.93;;;;;;;5.05;70.39;97157.05;1777117;81;21103;-69
2021/10/24 07:43:19;;;;;;;8.55;5.05;;;;;;;5.26;70.04;97147.16;1764572;80;21021;-70
2021/10/24 07:45:49;;;;;;;9.43;3.97;;;;;;;5.50;68.98;97152.17;1753662;80;21076;-68
2021/10/24 07:48:18;;;;;;;7.47;4.03;;;;;;;5.73;67.83;97150.56;1772860;80;21006;-69
2021/10/24 07:50:45;;;;;;;8.90;4.40;;;;;;;5.90;67.12;97151.88;1772012;80;21010;-67
2021/10/24 07:53:14;;;;;;;10.13;5.97;;;;;;;6.10;66.07;97154.09;1767490;80;21023;-67
2021/10/24 07:55:43;;;;;;;10.30;4.90;;;;;;;6.24;66.21;97150.95;1771200;80;21125;-67
2021/10/24 07:58:11;;;;;;;7.50;4.17;;;;;;;6.39;65.15;97146.49;1764205;81;21017;-68
2021/10/24 08:00:38;;;;;;;8.57;4.40;;;;;;;6.52;65.31;97149.39;1765372;80;21038;-68
2021/10/24 08:03:08;;;;;;;10.63;3.97;;;;;;;6.61;64.08;97149.61;1769111;80;21572;-68
2021/10/24 08:05:36;;;;;;;8.93;3.40;;;;;;;6.63;63.10;97143.97;1757959;80;21042;-67
2021/10/24 08:08:04;;;;;;;9.83;3.23;;;;;;;6.75;63.54;97152.08;1772089;80;21015;-68
2021/10/24 08:10:31;;;;;;;9.73;3.37;;;;;;;6.85;62.88;97142.66;1779791;81;20987;-68
2021/10/24 08:12:58;;;;;;;9.90;3.53;;;;;;;6.91;62.29;97146.75;1773196;80;21061;-68
2021/10/24 08:15:25;;;;;;;7.73;4.00;;;;;;;7.00;62.44;97153.47;1770162;81;21117;-67
2021/10/24 08:17:54;;;;;;;5.77;3.07;;;;;;;7.08;61.99;97147.06;1771909;81;21512;-67
2021/10/24 08:20:35;;;;;;;10.50;4.00;;;;;;;7.20;61.89;97146.44;1731896;81;21026;-67
2021/10/24 08:23:03;;;;;;;9.10;3.53;;;;;;;7.32;61.87;97143.61;1772521;80;21524;-67
2021/10/24 08:25:29;;;;;;;9.87;3.60;;;;;;;7.44;61.32;97143.41;1773427;80;21088;-66
2021/10/24 08:27:59;;;;;;;7.43;3.73;;;;;;;7.57;61.73;97134.87;1763961;80;21040;-66
2021/10/24 08:30:44;;;;;;;8.73;4.73;;;;;;;7.72;60.13;97139.08;1768000;80;21567;-66
2021/10/24 08:33:30;;;;;;;5.83;3.10;;;;;;;7.70;58.73;97137.29;1766659;80;21079;-66
2021/10/24 08:36:02;;;;;;;8.63;4.37;;;;;;;7.80;57.76;97145.78;1764102;80;21104;-66
2021/10/24 08:38:31;;;;;;;9.87;3.77;;;;;;;7.95;58.93;97153.05;1764479;80;21017;-67
2021/10/24 08:41:00;;;;;;;8.23;3.50;;;;;;;8.06;58.55;97159.78;1768261;80;21008;-67
2021/10/24 08:43:30;;;;;;;7.30;2.93;;;;;;;8.13;57.68;97162.53;1768935;80;21061;-67
2021/10/24 08:45:57;;;;;;;10.37;3.83;;;;;;;8.23;56.33;97159.19;1768125;80;21014;-67
2021/10/24 08:48:24;;;;;;;6.43;2.87;;;;;;;8.36;57.26;97159.38;1765354;80;21093;-67
2021/10/24 08:50:51;;;;;;;7.20;3.07;;;;;;;8.48;54.90;97156.97;1766597;80;21126;-67
2021/10/24 08:53:23;;;;;;;10.00;3.57;;;;;;;8.60;54.89;97157.59;1775646;80;21042;-67
2021/10/24 08:55:49;;;;;;;4.27;2.70;;;;;;;8.69;55.15;97162.08;1776687;80;21030;-65
2021/10/24 08:58:16;;;;;;;7.87;3.20;;;;;;;8.77;54.41;97155.17;1774201;80;21066;-66
2021/10/24 09:00:43;;;;;;;7.70;2.90;;;;;;;8.83;53.80;97162.73;1776541;81;21022;-66
2021/10/24 09:03:11;;;;;;;4.63;2.30;;;;;;;8.95;54.25;97158.50;1773577;80;20980;-66
2021/10/24 09:05:44;;;;;;;9.83;2.60;;;;;;;9.01;52.98;97159.88;1768037;80;21482;-66
2021/10/24 09:08:20;;;;;;;4.60;2.35;;;;;;;9.08;53.55;97148.13;1768440;80;21033;-66
2021/10/24 09:10:55;;;;;;;5.40;2.30;;;;;;;9.14;50.05;97146.00;1770928;80;21142;-67
2021/10/24 09:13:34;;;;;;;4.60;2.20;;;;;;;9.23;51.06;97145.23;1778586;81;21105;-67
2021/10/24 09:16:07;;;;;;;6.27;2.00;;;;;;;9.24;49.71;97146.98;1767140;80;21081;-67
2021/10/24 09:18:43;;;;;;;6.20;2.85;;;;;;;9.38;51.42;97148.48;1765785;80;21066;-68
2021/10/24 09:21:21;;;;;;;6.67;1.80;;;;;;;9.51;50.32;97149.93;1771081;80;21576;-67
2021/10/24 09:24:03;;;;;;;3.87;2.17;;;;;;;9.36;47.79;97141.86;1765608;80;21613;-68
2021/10/24 09:26:31;;;;;;;5.13;3.07;;;;;;;9.44;50.41;97136.23;1764687;80;21099;-68
2021/10/24 09:29:11;;;;;;;5.27;2.40;;;;;;;9.63;51.30;97139.08;1767281;80;21104;-68
2021/10/24 09:31:41;;;;;;;5.30;1.90;;;;;;;9.70;48.38;97135.61;1767397;80;21045;-68
2021/10/24 09:34:22;;;;;;;4.17;1.60;;;;;;;9.83;49.09;97136.64;1778375;81;21031;-68
2021/10/24 09:37:00;;;;;;;3.30;1.17;;;;;;;10.05;48.42;97129.33;1774806;80;21069;-66
2021/10/24 09:39:43;;;;;;;5.00;1.70;;;;;;;10.25;48.56;97132.12;1780212;81;21098;-67
2021/10/24 09:42:22;;;;;;;4.03;1.57;;;;;;;10.13;48.84;97132.02;1777566;80;21058;-66
2021/10/24 09:45:12;;;;;;;5.83;1.90;;;;;;;10.30;49.57;97126.92;1775721;81;21042;-66
2021/10/24 09:47:45;;;;;;;4.80;2.00;;;;;;;10.54;48.70;97120.93;1768161;80;21020;-67
2021/10/24 09:50:37;;;;;;;4.17;2.17;;;;;;;10.65;47.24;97119.22;1764549;80;21523;-67
2021/10/24 09:53:18;;;;;;;4.00;1.50;;;;;;;10.78;47.72;97121.05;1768589;80;21021;-67
2021/10/24 09:56:02;;;;;;;7.20;1.70;;;;;;;10.95;46.66;97122.90;1770044;80;21026;-68
2021/10/24 09:58:39;;;;;;;2.00;1.50;;;;;;;10.98;45.37;97119.81;1778754;81;21050;-68
2021/10/24 10:01:09;;;;;;;4.17;1.50;;;;;;;11.02;45.04;97118.97;1770735;80;21043;-67
2021/10/24 10:03:45;;;;;;;4.87;1.30;;;;;;;11.08;43.74;97119.86;1775021;80;21556;-68
2021/10/24 10:06:12;;;;;;;3.03;1.80;;;;;;;11.10;43.70;97125.59;1768161;80;21076;-68
2021/10/24 10:08:45;;;;;;;2.37;1.30;;;;;;;11.35;43.41;97115.13;1765319;80;21014;-68
2021/10/24 10:11:32;;;;;;;3.08;1.70;;;;;;;11.47;41.74;97115.16;1765124;80;21092;-68
2021/10/24 10:14:15;;;;;;;4.53;1.40;;;;;;;11.66;42.47;97114.73;1771913;80;21049;-68
2021/10/24 10:16:48;;;;;;;3.58;1.47;;;;;;;12.09;41.52;97122.28;1771847;80;21002;-67
2021/10/24 10:19:15;;;;;;;2.17;1.20;;;;;;;12.13;40.41;97123.19;1771273;80;21085;-67
2021/10/24 10:21:47;;;;;;;2.20;1.30;;;;;;;11.86;40.33;97124.02;1771863;80;21565;-67
2021/10/24 10:24:37;;;;;;;2.98;1.60;;;;;;;12.25;38.41;97120.53;1773121;79;21019;-67
2021/10/24 10:27:29;;;;;;;4.70;1.10;;;;;;;12.80;38.61;97106.73;1749284;80;21036;-67
2021/10/24 10:30:00;;;;;;;1.80;0.75;;;;;;;13.39;37.73;97105.64;1768871;80;21116;-67
2021/10/24 10:32:46;;;;;;;1.60;1.17;;;;;;;13.69;36.29;97104.58;1766837;80;21089;-67
2021/10/24 10:35:23;;;;;;;3.12;1.32;;;;;;;13.94;32.13;97111.05;1764393;80;21116;-68
2021/10/24 10:38:03;;;;;;;4.37;1.75;;;;;;;14.35;33.83;97112.02;1769449;80;21098;-66
2021/10/24 10:40:40;;;;;;;2.67;2.20;;;;;;;14.64;33.51;97109.12;1765313;80;21024;-67
2021/10/24 10:43:21;;;;;;;2.70;1.45;;;;;;;15.01;31.97;97110.48;1775448;81;21213;-67
2021/10/24 10:45:57;;;;;;;1.70;1.20;;;;;;;15.14;31.39;97108.09;1773968;80;21513;-67
2021/10/24 10:48:37;;;;;;;3.27;1.60;;;;;;;15.17;31.35;97108.08;1770758;81;21038;-67
2021/10/24 10:51:23;;;;;;;1.87;1.10;;;;;;;15.34;30.06;97113.16;1765411;80;21476;-68
2021/10/24 10:54:03;;;;;;;2.60;1.62;;;;;;;15.48;31.10;97107.22;1764874;80;21044;-68
2021/10/24 10:56:41;;;;;;;2.98;1.55;;;;;;;15.48;30.37;97112.99;1768082;80;21009;-68
2021/10/24 10:59:17;;;;;;;1.85;1.37;;;;;;;15.83;30.73;97119.17;1768964;80;21015;-67
2021/10/24 11:01:44;;;;;;;3.22;1.40;;;;;;;16.30;30.06;97112.19;1764066;80;21045;-68
2021/10/24 11:04:15;;;;;;;3.52;1.87;;;;;;;16.24;30.48;97114.97;1765445;80;21136;-67
2021/10/24 11:06:50;;;;;;;2.70;1.52;;;;;;;16.28;28.08;97116.69;1768277;80;21033;-67
2021/10/24 11:09:41;;;;;;;4.40;2.25;;;;;;;16.25;28.99;97118.51;1767850;80;21024;-68
2021/10/24 11:12:36;;;;;;;5.00;3.05;;;;;;;16.40;28.36;97113.83;1766892;80;21031;-68
2021/10/24 11:15:18;;;;;;;3.37;1.70;;;;;;;16.36;28.52;97115.23;1768833;80;21060;-65
2021/10/24 11:17:49;;;;;;;2.12;1.35;;;;;;;16.64;28.95;97115.62;1764060;80;21049;-67
2021/10/24 11:20:39;;;;;;;3.40;1.45;;;;;;;16.85;28.78;97096.57;1766107;79;21109;-68
2021/10/24 11:23:12;;;;;;;4.20;2.22;;;;;;;17.15;28.36;97096.00;1764025;81;21015;-68
2021/10/24 11:25:41;;;;;;;;;;;;;;;16.95;27.06;97100.40;1771146;80;21061;-67
2021/10/24 11:28:12;;;;;;;4.67;2.30;;;;;;;17.09;28.07;97091.22;1764029;80;20128;-68
2021/10/24 11:30:40;;;;;;;5.55;2.08;;;;;;;17.34;29.67;97100.48;1775796;80;21101;-68
2021/10/24 11:33:08;;;;;;;2.55;1.50;;;;;;;17.73;28.80;97094.27;1771482;80;21023;-68
2021/10/24 11:35:41;;;;;;;3.92;2.33;;;;;;;18.06;27.41;97090.41;1771930;80;21047;-68
2021/10/24 11:38:13;;;;;;;3.02;2.00;;;;;;;18.08;27.03;97083.25;1767267;80;21013;-68
2021/10/24 11:40:46;;;;;;;2.92;1.90;;;;;;;18.24;26.28;97092.22;1771586;80;21074;-68
2021/10/24 11:43:19;;;;;;;2.95;1.80;;;;;;;18.50;26.29;97095.58;1757341;81;21053;-67
2021/10/24 11:45:59;;;;;;;3.80;2.22;;;;;;;18.21;25.67;97093.17;1776106;80;21058;-67
2021/10/24 11:48:32;;;;;;;4.42;3.00;;;;;;;18.50;25.26;97080.88;1775939;80;21010;-67
2021/10/24 11:51:02;;;;;;;4.50;2.33;;;;;;;18.55;24.55;97085.65;1769762;80;21054;-68
2021/10/24 11:53:47;;;;;;;3.98;3.00;;;;;;;18.82;26.02;97081.36;1765870;80;21132;-68